Time;durP1;ratioP1;P1;durP2;ratioP2;P2;SDS_P1;SDS_P2;PMS_P1;PMS_P2;Temp;Humidity;BMP_temperature;BMP_pressure;BME280_temperature;BME280_humidity;BME280_pressure;Samples;Min_cycle;Max_cycle;Signal;HPM_P1;HPM_P2
2022/08/05 00:02:08;;;;;;;6.65;4.40;;;;;;;20.32;75.55;101226.88;3597010;39;20058;-62
2022/08/05 00:04:34;;;;;;;6.90;4.72;;;;;;;20.32;75.77;101231.47;3609819;39;20304;-62
2022/08/05 00:07:00;;;;;;;6.05;4.65;;;;;;;20.30;75.48;101228.91;3609078;39;20057;-62
2022/08/05 00:09:26;;;;;;;9.15;4.78;;;;;;;20.30;75.82;101222.59;3609869;39;20054;-62
2022/08/05 00:11:51;;;;;;;7.45;5.00;;;;;;;20.25;75.68;101224.91;3609948;39;20062;-62
2022/08/05 00:14:17;;;;;;;7.32;5.30;;;;;;;20.17;76.13;101212.88;3609201;39;20050;-63
2022/08/05 00:16:46;;;;;;;6.60;5.03;;;;;;;20.25;76.20;101227.63;3608401;39;20058;-62
2022/08/05 00:19:11;;;;;;;7.95;5.53;;;;;;;20.24;76.90;101239.56;3609631;39;20046;-62
2022/08/05 00:21:37;;;;;;;10.02;5.18;;;;;;;20.17;76.55;101223.78;3609547;39;20336;-63
2022/08/05 00:24:03;;;;;;;10.32;5.97;;;;;;;20.28;76.41;101235.53;3608884;39;20067;-62
2022/08/05 00:26:29;;;;;;;7.60;5.60;;;;;;;20.29;76.29;101237.25;3609747;39;20103;-63
2022/08/05 00:28:54;;;;;;;8.80;5.80;;;;;;;20.28;76.36;101230.06;3609264;39;20047;-62
2022/08/05 00:31:20;;;;;;;8.45;5.88;;;;;;;20.31;76.66;101237.97;3608573;39;20055;-62
2022/08/05 00:33:46;;;;;;;9.40;5.75;;;;;;;20.32;76.80;101236.94;3608830;39;20386;-62
2022/08/05 00:36:12;;;;;;;11.20;5.88;;;;;;;20.32;76.82;101242.41;3609641;39;20055;-62
2022/08/05 00:38:38;;;;;;;8.07;5.45;;;;;;;20.32;77.52;101253.31;3609462;39;20628;-63
2022/08/05 00:41:06;;;;;;;11.10;6.45;;;;;;;19.79;77.11;101147.44;3607477;39;20058;-62
2022/08/05 00:43:33;;;;;;;9.07;5.80;;;;;;;20.35;77.61;101242.97;3607922;39;20584;-63
2022/08/05 00:45:59;;;;;;;9.63;6.13;;;;;;;20.33;76.84;101228.63;3609128;39;20144;-65
2022/08/05 00:48:24;;;;;;;9.13;6.10;;;;;;;20.28;76.91;101232.78;3609480;39;20059;-62
2022/08/05 00:50:51;;;;;;;9.82;6.20;;;;;;;20.23;77.75;101226.91;3595711;39;20054;-64
2022/08/05 00:53:21;;;;;;;7.57;6.25;;;;;;;19.41;77.58;101083.75;3609543;39;20084;-62
2022/08/05 00:55:47;;;;;;;9.95;6.57;;;;;;;20.14;78.38;101226.81;3609803;39;20063;-62
2022/08/05 00:58:16;;;;;;;11.25;6.47;;;;;;;20.17;78.64;101228.34;3607329;39;20400;-63
2022/08/05 01:00:44;;;;;;;8.77;6.43;;;;;;;20.19;78.41;101226.34;3608925;39;20292;-63
2022/08/05 01:03:11;;;;;;;9.63;6.20;;;;;;;20.24;77.59;101231.38;3609391;39;20054;-63
2022/08/05 01:05:37;;;;;;;7.55;6.22;;;;;;;20.16;77.79;101213.84;3606228;39;20091;-63
2022/08/05 01:08:03;;;;;;;9.30;6.35;;;;;;;20.25;77.44;101239.41;3609138;39;20132;-63
2022/08/05 01:11:05;;;;;;;10.05;6.00;;;;;;;20.25;76.97;101246.75;3609713;39;20050;-63
2022/08/05 01:13:54;;;;;;;8.68;6.22;;;;;;;20.26;77.77;101270.28;3582291;39;20055;-62
2022/08/05 01:16:55;;;;;;;10.27;6.93;;;;;;;20.28;77.52;101284.69;3609007;39;20055;-63
2022/08/05 01:19:21;;;;;;;11.27;6.20;;;;;;;20.30;77.78;101293.59;3606463;39;20054;-62
2022/08/05 01:21:46;;;;;;;9.38;6.45;;;;;;;20.33;77.98;101310.53;3609280;39;20054;-63
2022/08/05 01:24:46;;;;;;;11.50;5.97;;;;;;;20.37;77.66;101311.97;3607030;39;20054;-63
2022/08/05 01:27:58;;;;;;;8.82;5.78;;;;;;;20.37;76.98;101319.28;3609253;39;20042;-63
2022/08/05 01:30:33;;;;;;;8.65;5.78;;;;;;;20.37;76.86;101305.63;3605019;39;20066;-63
2022/08/05 01:33:05;;;;;;;11.35;5.38;;;;;;;20.23;77.00;101263.25;3603026;39;20107;-63
2022/08/05 01:35:36;;;;;;;10.57;5.10;;;;;;;20.37;77.85;101289.25;3607920;39;20051;-63
2022/08/05 01:38:05;;;;;;;12.10;5.35;;;;;;;20.29;77.79;101286.38;3607759;39;20257;-63
2022/08/05 01:40:33;;;;;;;7.75;5.15;;;;;;;20.22;77.72;101275.19;3607949;39;20057;-63
2022/08/05 01:43:02;;;;;;;10.38;4.93;;;;;;;20.40;77.84;101300.75;3608908;39;20131;-63
2022/08/05 01:45:33;;;;;;;8.63;4.60;;;;;;;20.46;76.83;101312.94;3609025;39;20120;-63
2022/08/05 01:48:02;;;;;;;7.78;4.82;;;;;;;20.48;76.82;101313.66;3606833;39;20046;-63
2022/08/05 01:50:39;;;;;;;12.95;4.70;;;;;;;20.51;76.41;101298.84;3608523;39;20047;-63
2022/08/05 01:53:11;;;;;;;13.38;5.20;;;;;;;20.52;76.46;101293.28;3605140;39;20051;-63
2022/08/05 01:55:41;;;;;;;8.30;4.68;;;;;;;20.50;75.97;101292.53;3608791;39;20286;-63
2022/08/05 01:58:12;;;;;;;9.63;4.55;;;;;;;20.32;76.23;101259.66;3608906;39;20054;-63
2022/08/05 02:00:44;;;;;;;11.52;4.82;;;;;;;20.48;75.79;101278.13;3608588;39;20314;-63
2022/08/05 02:03:43;;;;;;;6.88;4.38;;;;;;;20.40;75.95;101248.84;3605315;39;20050;-63
2022/08/05 02:06:11;;;;;;;10.57;5.00;;;;;;;20.25;76.55;101223.03;3606600;39;20365;-62
2022/08/05 02:08:37;;;;;;;8.93;4.40;;;;;;;20.34;76.30;101215.81;3609572;39;20272;-63
2022/08/05 02:11:12;;;;;;;8.65;4.20;;;;;;;20.32;75.75;101221.41;3609396;39;20043;-63
2022/08/05 02:13:54;;;;;;;7.65;4.70;;;;;;;20.32;76.39;101226.03;3610059;39;20053;-63
2022/08/05 02:16:27;;;;;;;9.60;4.60;;;;;;;20.28;75.94;101257.38;3610147;39;20119;-63
2022/08/05 02:19:15;;;;;;;8.68;4.57;;;;;;;20.23;76.86;101289.69;3607633;39;20389;-63
2022/08/05 02:21:58;;;;;;;8.13;4.68;;;;;;;20.25;75.91;101258.53;3609775;39;20106;-63
2022/08/05 02:24:36;;;;;;;9.57;4.95;;;;;;;20.23;76.73;101232.38;3607621;39;20062;-63
2022/08/05 02:27:09;;;;;;;10.35;4.63;;;;;;;20.23;77.01;101259.66;3604202;39;20055;-63
2022/08/05 02:29:36;;;;;;;8.60;4.70;;;;;;;20.18;76.73;101271.03;3608197;39;20060;-63
2022/08/05 02:32:08;;;;;;;9.43;4.93;;;;;;;20.25;75.92;101282.25;3606562;39;20389;-63
2022/08/05 02:34:36;;;;;;;8.82;4.90;;;;;;;20.28;76.22;101290.13;3608892;39;20047;-63
2022/08/05 02:37:07;;;;;;;9.77;4.85;;;;;;;20.33;76.57;101287.81;3607568;39;20466;-63
2022/08/05 02:39:37;;;;;;;10.32;5.07;;;;;;;20.34;77.47;101284.09;3609040;39;20463;-63
2022/08/05 02:42:06;;;;;;;7.70;4.97;;;;;;;20.33;76.38;101293.25;3604419;39;20125;-62
2022/08/05 02:44:38;;;;;;;10.05;4.90;;;;;;;20.33;76.46;101290.53;3608929;39;20051;-62
2022/08/05 02:47:08;;;;;;;8.80;4.90;;;;;;;20.31;76.86;101274.31;3608210;39;20047;-63
2022/08/05 02:49:38;;;;;;;9.25;5.28;;;;;;;20.23;76.32;101259.66;3607265;39;20121;-63
2022/08/05 02:52:10;;;;;;;9.10;5.15;;;;;;;20.31;76.79;101273.47;3608067;39;20050;-62
2022/08/05 02:54:41;;;;;;;8.77;4.85;;;;;;;20.28;76.81;101255.50;3608963;39;20054;-62
2022/08/05 02:57:13;;;;;;;8.63;4.90;;;;;;;20.26;76.42;101249.31;3608092;39;20054;-62
2022/08/05 02:59:45;;;;;;;10.02;5.32;;;;;;;20.23;76.65;101254.22;3608064;39;20347;-62
2022/08/05 03:02:16;;;;;;;8.20;5.20;;;;;;;20.03;76.52;101226.97;3608033;39;20056;-63
2022/08/05 03:04:44;;;;;;;10.02;5.55;;;;;;;20.17;76.29;101250.19;3608904;39;20297;-62
2022/08/05 03:07:11;;;;;;;11.18;5.63;;;;;;;20.14;76.31;101259.56;3606018;39;20416;-62
2022/08/05 03:09:41;;;;;;;12.43;5.55;;;;;;;20.12;76.47;101247.91;3608744;39;20114;-64
2022/08/05 03:12:07;;;;;;;9.98;5.72;;;;;;;20.09;75.79;101256.41;3607376;39;20049;-62
2022/08/05 03:14:33;;;;;;;10.15;5.32;;;;;;;20.06;75.89;101278.53;3608576;39;20051;-62
2022/08/05 03:16:59;;;;;;;9.27;4.90;;;;;;;20.04;75.24;101266.88;3608085;39;20452;-62
2022/08/05 03:19:25;;;;;;;12.43;5.57;;;;;;;20.04;76.01;101276.94;3608731;39;20271;-62
2022/08/05 03:21:50;;;;;;;10.68;5.10;;;;;;;19.98;75.19;101278.41;3608346;39;20434;-61
2022/08/05 03:24:20;;;;;;;8.63;5.35;;;;;;;19.77;75.97;101251.25;3607810;39;20673;-62
2022/08/05 03:26:46;;;;;;;6.60;5.22;;;;;;;19.95;75.41;101289.59;3608067;39;20050;-62
2022/08/05 03:29:12;;;;;;;7.30;5.20;;;;;;;19.83;76.36;101266.19;3608048;39;20411;-62
2022/08/05 03:31:39;;;;;;;10.80;5.10;;;;;;;20.02;75.75;101296.22;3607736;39;20101;-62
2022/08/05 03:34:05;;;;;;;6.78;4.97;;;;;;;20.04;76.00;101291.44;3606342;39;20572;-63
2022/08/05 03:36:31;;;;;;;8.98;5.05;;;;;;;20.06;75.14;101286.72;3605619;39;20060;-62
2022/08/05 03:38:57;;;;;;;8.68;5.30;;;;;;;20.03;75.82;101289.72;3607805;39;20123;-62
2022/08/05 03:41:22;;;;;;;8.57;4.85;;;;;;;20.00;75.06;101290.00;3604741;39;20059;-62
2022/08/05 03:43:48;;;;;;;12.18;5.25;;;;;;;19.98;75.22;101291.16;3607472;39;20124;-62
2022/08/05 03:46:14;;;;;;;10.65;5.22;;;;;;;19.99;74.91;101285.56;3607779;39;20471;-62
2022/08/05 03:48:39;;;;;;;9.75;5.80;;;;;;;19.97;74.48;101290.31;3608667;39;20363;-63
2022/08/05 03:51:20;;;;;;;10.40;5.35;;;;;;;19.99;75.17;101282.00;3607725;39;20054;-63
2022/08/05 03:54:16;;;;;;;13.40;5.40;;;;;;;19.99;75.66;101277.38;3600146;39;20046;-62
2022/08/05 03:56:45;;;;;;;10.38;5.57;;;;;;;19.79;75.02;101242.91;3608208;39;20061;-62
2022/08/05 03:59:23;;;;;;;7.45;4.72;;;;;;;20.04;75.23;101283.25;3604549;39;20051;-63
2022/08/05 04:01:55;;;;;;;10.38;5.40;;;;;;;19.46;75.22;101179.59;3608062;39;20055;-62
2022/08/05 04:04:23;;;;;;;8.15;5.45;;;;;;;20.00;75.00;101270.91;3607835;39;20131;-62
2022/08/05 04:06:50;;;;;;;12.02;5.35;;;;;;;20.00;75.52;101270.91;3607191;39;20398;-62
2022/08/05 04:09:17;;;;;;;8.90;5.05;;;;;;;19.97;75.00;101263.00;3607860;39;20049;-62
2022/08/05 04:11:44;;;;;;;11.70;5.88;;;;;;;19.90;74.97;101256.44;3607846;39;20054;-62
2022/08/05 04:14:10;;;;;;;10.07;5.40;;;;;;;19.88;75.06;101266.59;3608187;39;20056;-62
2022/08/05 04:16:38;;;;;;;12.23;5.30;;;;;;;19.83;74.96;101266.19;3605337;39;20085;-63
2022/08/05 04:19:04;;;;;;;10.02;5.22;;;;;;;19.80;75.38;101261.03;3606711;39;20043;-62
2022/08/05 04:21:30;;;;;;;12.88;5.97;;;;;;;19.78;76.01;101266.63;3605350;39;20117;-62
2022/08/05 04:23:59;;;;;;;9.80;6.15;;;;;;;19.78;75.45;101261.16;3607521;39;20057;-62
2022/08/05 04:26:24;;;;;;;9.95;5.78;;;;;;;19.76;75.45;101254.13;3607966;39;20077;-62
2022/08/05 04:28:50;;;;;;;11.52;6.13;;;;;;;19.74;76.17;101258.88;3610201;39;20362;-63
2022/08/05 04:31:15;;;;;;;9.32;6.03;;;;;;;19.71;76.30;101252.69;3608443;39;20055;-63
2022/08/05 04:33:41;;;;;;;9.88;5.70;;;;;;;19.74;76.67;101265.19;3609654;39;20290;-62
2022/08/05 04:36:08;;;;;;;8.80;5.68;;;;;;;19.74;76.01;101272.53;3608252;39;20058;-62
2022/08/05 04:38:36;;;;;;;11.13;5.82;;;;;;;19.76;76.07;101278.66;3609902;39;20051;-63
2022/08/05 04:41:01;;;;;;;10.85;6.13;;;;;;;19.76;75.89;101282.28;3608118;39;20511;-63
2022/08/05 04:43:27;;;;;;;14.55;6.50;;;;;;;19.73;76.02;101279.84;3609738;39;20058;-62
2022/08/05 04:45:52;;;;;;;9.95;5.70;;;;;;;19.76;75.42;101284.13;3609760;39;20305;-62
2022/08/05 04:48:18;;;;;;;10.18;5.93;;;;;;;19.69;75.96;101272.94;3609467;39;20058;-63
2022/08/05 04:50:47;;;;;;;8.95;5.15;;;;;;;19.79;75.40;101283.84;3609578;39;20063;-62
2022/08/05 04:53:18;;;;;;;11.23;5.43;;;;;;;19.52;75.58;101239.03;3608881;39;20058;-62
2022/08/05 04:55:45;;;;;;;9.55;5.72;;;;;;;19.76;75.87;101284.13;3609219;39;20066;-62
2022/08/05 04:58:14;;;;;;;10.32;5.90;;;;;;;19.76;75.97;101284.13;3606171;39;20588;-62
2022/08/05 05:00:41;;;;;;;12.00;6.32;;;;;;;19.75;75.66;101285.16;3608373;39;20104;-63
2022/08/05 05:03:08;;;;;;;11.93;6.10;;;;;;;19.75;75.70;101287.88;3609043;39;20425;-63
2022/08/05 05:05:35;;;;;;;8.65;5.70;;;;;;;19.74;76.18;101284.28;3609878;39;20053;-62
2022/08/05 05:08:09;;;;;;;9.20;6.07;;;;;;;19.76;75.56;101287.75;3607664;39;20055;-62
2022/08/05 05:10:45;;;;;;;12.15;6.43;;;;;;;19.78;75.24;101293.03;3608766;39;20506;-62
2022/08/05 05:13:14;;;;;;;11.10;6.18;;;;;;;19.79;75.16;101289.31;3609414;39;20058;-62
2022/08/05 05:15:42;;;;;;;11.40;6.05;;;;;;;19.76;75.23;101289.59;3607258;39;20088;-63
2022/08/05 05:18:08;;;;;;;10.35;5.82;;;;;;;19.79;76.38;101292.03;3607856;39;20063;-62
2022/08/05 05:20:34;;;;;;;7.72;5.90;;;;;;;19.78;75.65;101288.44;3608018;39;20055;-62
2022/08/05 05:23:05;;;;;;;11.73;6.05;;;;;;;19.82;75.00;101286.28;3606319;39;20059;-62
2022/08/05 05:25:31;;;;;;;6.80;5.57;;;;;;;19.62;75.55;101256.25;3609206;39;20054;-62
2022/08/05 05:27:57;;;;;;;9.68;5.38;;;;;;;19.84;75.54;101289.75;3609432;39;20173;-62
2022/08/05 05:30:22;;;;;;;8.38;5.35;;;;;;;19.76;74.81;101292.31;3609287;39;20058;-62
2022/08/05 05:32:48;;;;;;;12.20;5.20;;;;;;;19.84;74.78;101306.97;3608581;39;20059;-63
2022/08/05 05:35:15;;;;;;;9.45;5.57;;;;;;;19.83;75.70;101307.97;3604337;39;20047;-63
2022/08/05 05:37:54;;;;;;;11.13;5.20;;;;;;;19.84;74.59;101306.09;3608339;39;20116;-62
2022/08/05 05:40:22;;;;;;;9.05;5.22;;;;;;;19.84;75.47;101323.34;3609538;39;20146;-63
2022/08/05 05:42:49;;;;;;;12.05;5.38;;;;;;;19.80;75.30;101318.31;3608542;39;20059;-62
2022/08/05 05:45:17;;;;;;;10.88;5.18;;;;;;;19.57;75.26;101285.84;3608573;39;20115;-62
2022/08/05 05:47:43;;;;;;;7.28;4.75;;;;;;;19.68;75.32;101313.00;3609358;39;20043;-63
2022/08/05 05:50:13;;;;;;;11.18;4.32;;;;;;;19.78;75.17;101332.09;3607320;39;20297;-64
2022/08/05 05:52:39;;;;;;;11.43;4.63;;;;;;;19.75;75.30;101328.78;3607399;39;20057;-63
2022/08/05 05:55:08;;;;;;;10.23;4.50;;;;;;;19.77;74.94;101334.97;3608538;39;20047;-64
2022/08/05 05:57:36;;;;;;;6.38;4.15;;;;;;;19.78;74.36;101342.16;3609003;39;20050;-63
2022/08/05 06:00:07;;;;;;;9.40;4.47;;;;;;;19.73;74.84;101334.41;3607583;39;20051;-62
2022/08/05 06:02:32;;;;;;;9.07;4.80;;;;;;;19.76;74.56;101344.16;3598270;39;20055;-63
2022/08/05 06:04:58;;;;;;;9.98;4.30;;;;;;;19.75;74.81;101340.56;3608393;39;20096;-64
2022/08/05 06:07:24;;;;;;;9.93;4.60;;;;;;;19.75;75.20;101334.25;3608608;39;20126;-63
2022/08/05 06:09:49;;;;;;;9.10;4.60;;;;;;;19.73;74.94;101333.50;3608893;39;20058;-63
2022/08/05 06:12:15;;;;;;;10.70;4.60;;;;;;;19.84;74.50;101339.72;3607781;39;20121;-63
2022/08/05 06:14:43;;;;;;;7.63;4.00;;;;;;;19.85;74.30;101343.28;3608758;39;20112;-63
2022/08/05 06:17:11;;;;;;;7.38;3.90;;;;;;;19.88;74.21;101337.56;3608867;39;20054;-63
2022/08/05 06:19:37;;;;;;;11.52;3.85;;;;;;;19.88;73.99;101343.00;3608252;39;20362;-64
2022/08/05 06:22:04;;;;;;;11.23;4.68;;;;;;;19.90;73.72;101338.28;3605440;39;20134;-64
2022/08/05 06:24:31;;;;;;;7.78;3.95;;;;;;;19.94;73.61;101336.97;3609286;39;20058;-63
2022/08/05 06:26:56;;;;;;;5.45;3.53;;;;;;;19.94;74.00;101342.44;3604250;39;20090;-63
2022/08/05 06:29:22;;;;;;;7.63;3.78;;;;;;;19.91;73.39;101343.59;3609208;39;20476;-64
2022/08/05 06:31:48;;;;;;;7.90;3.55;;;;;;;19.92;73.69;101347.19;3605714;39;20174;-64
2022/08/05 06:34:13;;;;;;;7.63;3.90;;;;;;;20.04;73.96;101348.75;3608668;39;20513;-64
2022/08/05 06:36:39;;;;;;;9.75;3.70;;;;;;;20.14;73.27;101343.31;3606291;39;20322;-63
2022/08/05 06:39:05;;;;;;;8.57;3.35;;;;;;;20.22;72.75;101348.91;3608130;39;20050;-63
2022/08/05 06:41:30;;;;;;;7.28;3.17;;;;;;;20.22;72.39;101348.03;3604605;39;20253;-63
2022/08/05 06:43:56;;;;;;;8.43;3.50;;;;;;;20.27;72.46;101354.81;3608484;39;20085;-63
2022/08/05 06:46:22;;;;;;;6.35;3.67;;;;;;;20.33;71.99;101365.16;3609022;39;20051;-63
2022/08/05 06:48:47;;;;;;;5.70;3.53;;;;;;;20.36;72.82;101369.44;3608423;39;20083;-63
2022/08/05 06:51:13;;;;;;;6.50;3.05;;;;;;;20.31;71.70;101371.75;3604922;39;20070;-63
2022/08/05 06:53:38;;;;;;;6.05;3.40;;;;;;;20.33;71.94;101377.91;3608020;39;20063;-63
2022/08/05 06:56:04;;;;;;;8.50;3.45;;;;;;;20.33;72.08;101383.38;3608785;39;20051;-63
2022/08/05 06:58:31;;;;;;;7.20;3.60;;;;;;;20.34;72.27;101387.84;3607820;39;20066;-63
2022/08/05 07:01:01;;;;;;;6.78;3.55;;;;;;;20.35;71.81;101384.09;3607771;39;20342;-64
2022/08/05 07:03:29;;;;;;;4.82;3.63;;;;;;;20.34;72.34;101376.94;3608571;39;20050;-63
2022/08/05 07:05:55;;;;;;;6.18;3.40;;;;;;;20.41;71.39;101389.00;3604207;39;20529;-63
2022/08/05 07:08:24;;;;;;;7.38;3.22;;;;;;;20.47;71.30;101399.34;3604748;39;20369;-64
2022/08/05 07:10:50;;;;;;;7.05;3.20;;;;;;;20.20;71.14;101353.63;3608352;39;20096;-63
2022/08/05 07:18:44;;;;;;;9.20;3.45;;;;;;;20.70;71.93;101409.97;3604147;39;20131;-63
2022/08/05 07:21:10;;;;;;;5.85;3.38;;;;;;;20.85;71.77;101403.91;3607473;39;20783;-63
2022/08/05 07:23:36;;;;;;;6.22;3.50;;;;;;;20.99;70.12;101408.03;3607971;39;20054;-64
2022/08/05 07:26:03;;;;;;;9.60;3.88;;;;;;;21.17;69.95;101412.72;3607843;39;20063;-64
2022/08/05 07:28:28;;;;;;;6.00;3.25;;;;;;;21.48;69.61;101421.56;3608693;39;20047;-63
2022/08/05 07:30:54;;;;;;;5.72;3.40;;;;;;;21.74;68.71;101425.28;3604815;39;20163;-63
2022/08/05 07:33:20;;;;;;;7.20;3.28;;;;;;;21.80;66.80;101429.28;3608664;39;20154;-65
2022/08/05 07:35:47;;;;;;;7.97;3.20;;;;;;;21.82;66.56;101430.00;3597856;39;20102;-65
2022/08/05 07:38:15;;;;;;;5.78;2.75;;;;;;;21.89;65.33;101435.72;3607919;39;20399;-63
2022/08/05 07:40:42;;;;;;;7.38;3.05;;;;;;;21.86;65.12;101430.56;3608592;39;20050;-63
2022/08/05 07:43:08;;;;;;;8.75;2.90;;;;;;;21.78;65.58;101412.16;3605542;39;20304;-63
2022/08/05 07:45:34;;;;;;;6.35;3.05;;;;;;;21.85;65.08;101435.19;3608862;39;20058;-64
2022/08/05 07:47:59;;;;;;;8.18;4.03;;;;;;;21.88;65.33;101440.31;3608601;39;20055;-63
2022/08/05 07:50:25;;;;;;;5.65;2.47;;;;;;;21.86;64.58;101442.38;3607791;39;20396;-64
2022/08/05 07:52:51;;;;;;;5.40;2.50;;;;;;;21.82;64.50;101448.28;3607162;39;20096;-63
2022/08/05 07:55:17;;;;;;;7.38;3.08;;;;;;;21.69;63.95;101422.16;3608651;39;20487;-63
2022/08/05 07:57:42;;;;;;;5.40;2.22;;;;;;;21.79;64.09;101441.28;3607573;39;20400;-64
2022/08/05 08:00:09;;;;;;;6.30;2.70;;;;;;;21.79;62.83;101447.59;3603988;39;20074;-63
2022/08/05 08:02:35;;;;;;;5.85;2.60;;;;;;;21.85;62.62;101451.59;3608669;39;20059;-63
2022/08/05 08:05:01;;;;;;;4.22;2.13;;;;;;;21.82;62.77;101462.84;3610777;39;20058;-63
2022/08/05 08:07:26;;;;;;;18.58;16.00;;;;;;;21.79;62.70;101457.69;3609579;39;20119;-63
2022/08/05 08:09:52;;;;;;;14.95;9.13;;;;;;;21.59;62.04;101402.19;3609951;39;20067;-63
2022/08/05 08:12:19;;;;;;;6.00;2.80;;;;;;;22.01;61.33;101457.25;3609130;39;20046;-63
2022/08/05 08:14:45;;;;;;;4.78;2.22;;;;;;;22.19;61.12;101464.66;3610387;39;20391;-64
2022/08/05 08:17:11;;;;;;;3.55;2.08;;;;;;;22.35;61.87;101464.81;3609450;39;20171;-63
2022/08/05 08:19:38;;;;;;;7.38;2.72;;;;;;;22.51;59.71;101457.78;3609087;39;20046;-64
2022/08/05 08:22:05;;;;;;;6.07;2.47;;;;;;;22.60;59.45;101465.06;3609552;39;20122;-63
2022/08/05 08:24:31;;;;;;;5.70;2.20;;;;;;;22.80;58.66;101476.69;3609746;39;20372;-62
2022/08/05 08:26:58;;;;;;;3.90;2.22;;;;;;;22.83;57.60;101477.22;3608642;39;20049;-63
2022/08/05 08:29:23;;;;;;;4.00;1.98;;;;;;;22.89;57.62;101483.97;3609881;39;20050;-63
2022/08/05 08:31:50;;;;;;;5.57;2.35;;;;;;;22.88;56.42;101483.09;3609087;39;20055;-63
2022/08/05 08:34:19;;;;;;;4.10;1.85;;;;;;;22.93;57.53;101483.53;3599402;39;20420;-63
2022/08/05 08:36:45;;;;;;;5.32;2.00;;;;;;;22.97;56.63;101475.84;3606937;39;20476;-62
2022/08/05 08:39:11;;;;;;;4.10;1.80;;;;;;;22.96;56.72;101473.25;3609186;39;20061;-62
2022/08/05 08:41:40;;;;;;;2.35;1.60;;;;;;;22.98;56.20;101487.69;3605567;39;20051;-62
2022/08/05 08:44:11;;;;;;;3.35;1.60;;;;;;;22.96;56.14;101486.97;3606482;39;20058;-63
2022/08/05 08:46:37;;;;;;;3.63;1.52;;;;;;;22.98;55.80;101499.50;3608997;39;20119;-62
2022/08/05 08:49:05;;;;;;;3.88;1.90;;;;;;;22.96;55.58;101504.28;3603313;39;20289;-63
2022/08/05 08:51:35;;;;;;;4.03;1.55;;;;;;;23.08;55.49;101504.88;3606045;39;20071;-62
2022/08/05 08:54:03;;;;;;;3.72;1.98;;;;;;;23.12;55.27;101511.75;3606520;39;20068;-62
2022/08/05 08:56:31;;;;;;;4.88;2.42;;;;;;;23.33;56.11;101512.25;3605374;39;20511;-61
2022/08/05 08:58:58;;;;;;;4.85;1.92;;;;;;;23.48;54.94;101512.53;3598578;39;20474;-61
2022/08/05 09:01:24;;;;;;;4.57;1.75;;;;;;;23.81;54.76;101513.59;3596401;39;20059;-62
2022/08/05 09:03:55;;;;;;;3.72;1.90;;;;;;;24.07;54.72;101518.16;3604371;39;20433;-62
2022/08/05 09:06:22;;;;;;;6.07;1.80;;;;;;;24.16;53.21;101522.66;3604854;39;20396;-62
2022/08/05 09:08:47;;;;;;;3.75;1.80;;;;;;;24.19;54.05;101524.19;3608139;39;20375;-62
2022/08/05 09:11:14;;;;;;;4.00;1.70;;;;;;;24.19;52.00;101536.03;3608375;39;20428;-61
2022/08/05 09:13:41;;;;;;;5.38;1.75;;;;;;;24.09;52.56;101535.34;3607179;39;20397;-61
2022/08/05 09:16:10;;;;;;;3.15;1.38;;;;;;;23.95;52.86;101533.22;3607602;39;20401;-62
2022/08/05 09:18:36;;;;;;;4.00;1.83;;;;;;;23.98;53.62;101535.66;3606635;39;20094;-62
2022/08/05 09:21:03;;;;;;;3.95;1.90;;;;;;;24.29;52.34;101528.56;3604450;39;20057;-61
2022/08/05 09:23:29;;;;;;;2.45;1.40;;;;;;;24.66;52.51;101541.00;3604174;39;20128;-62
2022/08/05 09:26:12;;;;;;;3.13;1.38;;;;;;;24.71;51.77;101537.75;3606570;39;20341;-61
2022/08/05 09:28:39;;;;;;;3.08;1.63;;;;;;;24.48;51.59;101543.03;3607341;39;20050;-61
2022/08/05 09:31:15;;;;;;;2.60;1.70;;;;;;;24.15;51.81;101542.06;3608098;39;20095;-61
2022/08/05 09:33:58;;;;;;;3.10;1.70;;;;;;;23.89;52.94;101550.38;3606443;39;20124;-61
2022/08/05 09:36:44;;;;;;;4.20;1.58;;;;;;;23.67;52.95;101558.09;3602013;39;20055;-61
2022/08/05 09:39:13;;;;;;;3.17;1.40;;;;;;;23.54;52.77;101549.47;3603449;39;20320;-61
2022/08/05 09:42:02;;;;;;;2.42;1.30;;;;;;;23.88;53.05;101541.25;3604181;39;20054;-60
2022/08/05 09:44:47;;;;;;;4.03;1.70;;;;;;;24.46;50.95;101556.09;3610249;39;20046;-60
2022/08/05 09:47:19;;;;;;;3.45;1.50;;;;;;;25.03;48.26;101558.91;3610189;39;20054;-61
2022/08/05 09:49:54;;;;;;;2.22;1.40;;;;;;;25.40;48.67;101563.03;3605987;39;20047;-60
2022/08/05 09:52:33;;;;;;;4.65;3.33;;;;;;;25.71;47.84;101561.25;3606087;39;20055;-61
2022/08/05 09:55:11;;;;;;;4.07;2.83;;;;;;;26.04;46.22;101563.06;3607486;39;20094;-60
2022/08/05 09:57:48;;;;;;;2.33;1.42;;;;;;;26.21;46.29;101558.38;3608123;39;20391;-60
2022/08/05 10:00:19;;;;;;;2.78;1.88;;;;;;;26.12;46.80;101561.16;3605021;39;20275;-61
2022/08/05 10:02:53;;;;;;;2.88;1.20;;;;;;;25.94;45.03;101557.78;3608801;39;20054;-60
2022/08/05 10:05:26;;;;;;;2.78;1.15;;;;;;;25.75;43.42;101564.50;3608519;39;20139;-61
2022/08/05 10:07:56;;;;;;;1.67;0.88;;;;;;;25.50;43.50;101571.09;3606493;39;20051;-60
2022/08/05 10:10:45;;;;;;;1.90;0.90;;;;;;;25.27;42.28;101565.47;3607315;39;20042;-61
2022/08/05 10:13:27;;;;;;;2.42;0.95;;;;;;;25.02;42.28;101576.44;3605189;39;20054;-61
2022/08/05 10:15:53;;;;;;;3.15;0.93;;;;;;;24.95;42.15;101576.25;3605945;39;20054;-61
2022/08/05 10:18:21;;;;;;;4.03;1.17;;;;;;;25.27;42.50;101571.81;3605927;39;20477;-61
2022/08/05 10:20:56;;;;;;;3.55;1.17;;;;;;;25.82;41.01;101573.84;3608136;39;20277;-61
2022/08/05 10:23:28;;;;;;;1.83;0.73;;;;;;;25.92;40.72;101581.91;3595195;39;20069;-61
2022/08/05 10:25:57;;;;;;;2.35;1.00;;;;;;;26.24;40.49;101578.16;3605900;39;20101;-61
2022/08/05 10:28:23;;;;;;;1.23;0.70;;;;;;;26.54;40.60;101581.97;3605704;39;20058;-62
2022/08/05 10:30:52;;;;;;;2.33;0.88;;;;;;;26.75;39.76;101588.75;3605895;39;20377;-62
2022/08/05 10:33:19;;;;;;;2.03;0.90;;;;;;;26.98;37.43;101592.38;3606804;39;20717;-61
2022/08/05 10:35:45;;;;;;;1.90;0.77;;;;;;;27.14;37.80;101591.41;3607402;39;20377;-61
2022/08/05 10:38:13;;;;;;;9.38;2.85;;;;;;;27.13;36.53;101586.91;3606062;39;20066;-61
2022/08/05 10:40:50;;;;;;;3.95;1.42;;;;;;;26.97;35.18;101596.19;3606256;39;20123;-62
2022/08/05 10:43:47;;;;;;;5.00;1.30;;;;;;;26.62;35.65;101589.34;3595782;39;20063;-61
2022/08/05 10:46:20;;;;;;;1.77;1.10;;;;;;;26.37;36.97;101586.69;3606018;39;20053;-61
2022/08/05 10:48:55;;;;;;;;;;;;;;;26.35;37.54;101598.94;3607061;39;20063;-62
2022/08/05 10:51:21;;;;;;;0.80;0.50;;;;;;;26.32;36.42;101600.16;3606899;39;19943;-62
2022/08/05 10:53:49;;;;;;;1.35;0.60;;;;;;;26.40;36.74;101602.88;3606928;39;20112;-62
2022/08/05 10:56:19;;;;;;;1.48;0.60;;;;;;;26.55;36.26;101607.69;3605627;39;20050;-62
2022/08/05 10:58:57;;;;;;;1.20;0.90;;;;;;;26.60;37.01;101613.50;3605534;39;20359;-62
2022/08/05 11:01:36;;;;;;;0.80;0.50;;;;;;;26.46;36.32;101606.81;3606167;39;20059;-61
2022/08/05 11:04:08;;;;;;;3.00;0.80;;;;;;;26.44;35.95;101614.41;3604883;39;20147;-61
2022/08/05 11:06:59;;;;;;;0.90;0.73;;;;;;;26.41;35.71;101617.53;3606549;39;20387;-62
2022/08/05 11:09:46;;;;;;;1.25;0.73;;;;;;;26.33;36.01;101620.34;3603980;39;20268;-62
2022/08/05 11:12:39;;;;;;;1.67;0.93;;;;;;;26.25;35.41;101618.44;3605714;39;20050;-62
2022/08/05 11:15:06;;;;;;;2.65;0.70;;;;;;;26.21;34.12;101616.25;3606600;39;20119;-62
2022/08/05 11:17:39;;;;;;;1.60;0.50;;;;;;;26.04;34.21;101605.28;3604743;39;20058;-62
2022/08/05 11:20:43;;;;;;;2.25;0.52;;;;;;;26.19;34.22;101626.56;3604283;39;20437;-62
2022/08/05 11:23:31;;;;;;;2.38;1.00;;;;;;;26.33;33.49;101629.47;3603580;39;20389;-62
2022/08/05 11:26:30;;;;;;;3.30;0.80;;;;;;;26.56;33.88;101626.78;3603558;39;20483;-62
2022/08/05 11:28:56;;;;;;;1.67;0.60;;;;;;;26.65;33.99;101630.38;3599902;39;20411;-62
2022/08/05 11:31:32;;;;;;;1.33;0.70;;;;;;;26.72;33.39;101628.59;3604552;39;20051;-62
2022/08/05 11:34:06;;;;;;;3.03;0.90;;;;;;;26.75;36.06;101639.25;3605831;39;20049;-61
2022/08/05 11:36:47;;;;;;;1.20;0.60;;;;;;;26.74;33.59;101631.19;3606970;39;20063;-62
2022/08/05 11:39:36;;;;;;;3.25;1.20;;;;;;;26.90;34.27;101628.31;3606673;39;20065;-62
2022/08/05 11:42:02;;;;;;;1.60;0.60;;;;;;;27.36;33.14;101636.63;3605657;39;20484;-62
2022/08/05 11:44:38;;;;;;;2.30;0.70;;;;;;;27.16;34.50;101643.69;3608316;39;20074;-62